sensor_id;sensor_type;location;lat;lon;timestamp;pressure;altitude;pressure_sealevel;temperature;humidity
70968;BME280;58629;48.808;8.820;2022-10-26T00:01:24;97153.47;;;10.68;100.00
70968;BME280;58629;48.808;8.820;2022-10-26T00:03:50;97163.28;;;10.71;100.00
70968;BME280;58629;48.808;8.820;2022-10-26T00:06:17;97161.31;;;10.75;100.00
70968;BME280;58629;48.808;8.820;2022-10-26T00:08:44;97160.16;;;10.76;100.00
70968;BME280;58629;48.808;8.820;2022-10-26T00:11:10;97161.59;;;10.81;100.00
70968;BME280;58629;48.808;8.820;2022-10-26T00:13:36;97156.22;;;10.84;100.00
70968;BME280;58629;48.808;8.820;2022-10-26T00:16:08;97156.97;;;10.85;100.00
70968;BME280;58629;48.808;8.820;2022-10-26T00:18:33;97161.06;;;10.89;100.00
70968;BME280;58629;48.808;8.820;2022-10-26T00:21:03;97158.75;;;10.91;100.00
70968;BME280;58629;48.808;8.820;2022-10-26T00:23:28;97159.81;;;10.94;100.00
70968;BME280;58629;48.808;8.820;2022-10-26T00:25:55;97151.06;;;10.97;100.00
70968;BME280;58629;48.808;8.820;2022-10-26T00:28:20;97150.66;;;10.98;100.00
70968;BME280;58629;48.808;8.820;2022-10-26T00:30:46;97150.31;;;10.96;100.00
70968;BME280;58629;48.808;8.820;2022-10-26T00:33:12;97151.34;;;11.02;100.00
70968;BME280;58629;48.808;8.820;2022-10-26T00:35:37;97154.34;;;11.04;100.00
70968;BME280;58629;48.808;8.820;2022-10-26T00:38:02;97161.88;;;11.06;100.00
70968;BME280;58629;48.808;8.820;2022-10-26T00:40:28;97161.78;;;11.09;100.00
70968;BME280;58629;48.808;8.820;2022-10-26T00:42:54;97165.53;;;11.12;100.00
70968;BME280;58629;48.808;8.820;2022-10-26T00:45:22;97156.78;;;11.15;100.00
70968;BME280;58629;48.808;8.820;2022-10-26T00:47:50;97162.81;;;11.15;100.00
70968;BME280;58629;48.808;8.820;2022-10-26T00:50:20;97167.31;;;11.18;100.00
70968;BME280;58629;48.808;8.820;2022-10-26T00:52:46;97150.53;;;11.25;100.00
70968;BME280;58629;48.808;8.820;2022-10-26T00:55:12;97153.84;;;11.29;100.00
70968;BME280;58629;48.808;8.820;2022-10-26T00:57:38;97148.47;;;11.32;100.00
70968;BME280;58629;48.808;8.820;2022-10-26T01:00:05;97149.88;;;11.37;100.00
70968;BME280;58629;48.808;8.820;2022-10-26T01:02:31;97152.47;;;11.41;100.00
70968;BME280;58629;48.808;8.820;2022-10-26T01:04:56;97144.13;;;11.42;100.00
70968;BME280;58629;48.808;8.820;2022-10-26T01:07:23;97139.91;;;11.45;100.00
70968;BME280;58629;48.808;8.820;2022-10-26T01:09:49;97138.31;;;11.47;100.00
70968;BME280;58629;48.808;8.820;2022-10-26T01:12:15;97131.09;;;11.48;100.00
70968;BME280;58629;48.808;8.820;2022-10-26T01:14:40;97134.09;;;11.50;100.00
70968;BME280;58629;48.808;8.820;2022-10-26T01:20:20;97126.06;;;11.53;100.00
70968;BME280;58629;48.808;8.820;2022-10-26T01:22:57;97128.31;;;11.55;100.00
70968;BME280;58629;48.808;8.820;2022-10-26T01:25:44;97124.84;;;11.58;100.00
70968;BME280;58629;48.808;8.820;2022-10-26T01:28:33;97115.66;;;11.62;100.00
70968;BME280;58629;48.808;8.820;2022-10-26T01:31:08;97111.75;;;11.67;100.00
70968;BME280;58629;48.808;8.820;2022-10-26T01:33:44;97114.75;;;11.69;100.00
70968;BME280;58629;48.808;8.820;2022-10-26T01:36:33;97107.47;;;11.73;100.00
70968;BME280;58629;48.808;8.820;2022-10-26T01:39:08;97111.63;;;11.74;100.00
70968;BME280;58629;48.808;8.820;2022-10-26T01:41:45;97102.50;;;11.75;100.00
70968;BME280;58629;48.808;8.820;2022-10-26T01:44:42;97103.66;;;11.74;100.00
70968;BME280;58629;48.808;8.820;2022-10-26T01:47:12;97096.47;;;11.74;100.00
70968;BME280;58629;48.808;8.820;2022-10-26T01:49:41;97083.91;;;11.75;100.00
70968;BME280;58629;48.808;8.820;2022-10-26T01:52:09;97077.38;;;11.79;100.00
70968;BME280;58629;48.808;8.820;2022-10-26T01:54:35;97085.34;;;11.79;100.00
70968;BME280;58629;48.808;8.820;2022-10-26T01:57:03;97072.81;;;11.80;100.00
70968;BME280;58629;48.808;8.820;2022-10-26T02:07:39;97084.59;;;11.79;100.00
70968;BME280;58629;48.808;8.820;2022-10-26T02:13:17;97104.09;;;11.72;100.00
70968;BME280;58629;48.808;8.820;2022-10-26T02:15:53;97097.69;;;11.70;100.00
70968;BME280;58629;48.808;8.820;2022-10-26T02:18:31;97106.75;;;11.72;100.00
70968;BME280;58629;48.808;8.820;2022-10-26T02:21:09;97105.66;;;11.70;100.00
70968;BME280;58629;48.808;8.820;2022-10-26T02:23:37;97103.41;;;11.68;100.00
70968;BME280;58629;48.808;8.820;2022-10-26T02:26:07;97115.22;;;11.64;100.00
70968;BME280;58629;48.808;8.820;2022-10-26T02:28:36;97107.03;;;11.58;100.00
70968;BME280;58629;48.808;8.820;2022-10-26T02:31:04;97112.75;;;11.57;100.00
70968;BME280;58629;48.808;8.820;2022-10-26T02:33:34;97112.31;;;11.58;100.00
70968;BME280;58629;48.808;8.820;2022-10-26T02:36:03;97118.38;;;11.59;100.00
70968;BME280;58629;48.808;8.820;2022-10-26T02:38:32;97122.94;;;11.58;100.00
70968;BME280;58629;48.808;8.820;2022-10-26T02:40:59;97114.56;;;11.60;100.00
70968;BME280;58629;48.808;8.820;2022-10-26T02:43:25;97113.38;;;11.61;100.00
70968;BME280;58629;48.808;8.820;2022-10-26T02:46:06;97120.19;;;11.62;100.00
70968;BME280;58629;48.808;8.820;2022-10-26T02:48:33;97124.34;;;11.63;100.00
70968;BME280;58629;48.808;8.820;2022-10-26T02:50:59;97128.91;;;11.62;100.00
70968;BME280;58629;48.808;8.820;2022-10-26T02:53:31;97130.81;;;11.62;100.00
70968;BME280;58629;48.808;8.820;2022-10-26T02:56:03;97132.28;;;11.63;100.00
70968;BME280;58629;48.808;8.820;2022-10-26T02:58:32;97131.91;;;11.64;100.00
70968;BME280;58629;48.808;8.820;2022-10-26T03:01:01;97126.19;;;11.66;100.00
70968;BME280;58629;48.808;8.820;2022-10-26T03:03:26;97133.75;;;11.67;100.00
70968;BME280;58629;48.808;8.820;2022-10-26T03:05:52;97129.09;;;11.71;100.00
70968;BME280;58629;48.808;8.820;2022-10-26T03:08:17;97135.09;;;11.75;100.00
70968;BME280;58629;48.808;8.820;2022-10-26T03:10:44;97141.47;;;11.78;100.00
70968;BME280;58629;48.808;8.820;2022-10-26T03:13:11;97141.81;;;11.80;100.00
70968;BME280;58629;48.808;8.820;2022-10-26T03:15:37;97135.66;;;11.83;100.00
70968;BME280;58629;48.808;8.820;2022-10-26T03:18:02;97136.00;;;11.85;100.00
70968;BME280;58629;48.808;8.820;2022-10-26T03:20:28;97143.06;;;11.91;100.00
70968;BME280;58629;48.808;8.820;2022-10-26T03:22:54;97131.53;;;11.98;99.84
70968;BME280;58629;48.808;8.820;2022-10-26T03:25:21;97126.47;;;12.03;99.07
70968;BME280;58629;48.808;8.820;2022-10-26T03:27:46;97131.44;;;12.17;97.24
70968;BME280;58629;48.808;8.820;2022-10-26T03:30:11;97139.91;;;12.29;94.96
70968;BME280;58629;48.808;8.820;2022-10-26T03:32:37;97142.63;;;12.41;93.49
70968;BME280;58629;48.808;8.820;2022-10-26T03:35:03;97135.47;;;12.54;93.02
70968;BME280;58629;48.808;8.820;2022-10-26T03:37:28;97140.66;;;12.74;90.99
70968;BME280;58629;48.808;8.820;2022-10-26T03:39:54;97136.25;;;12.83;90.61
70968;BME280;58629;48.808;8.820;2022-10-26T03:42:19;97135.91;;;12.81;90.93
70968;BME280;58629;48.808;8.820;2022-10-26T03:44:44;97125.94;;;12.85;90.48
70968;BME280;58629;48.808;8.820;2022-10-26T03:47:11;97133.16;;;12.85;90.25
70968;BME280;58629;48.808;8.820;2022-10-26T03:49:36;97135.81;;;12.85;90.39
70968;BME280;58629;48.808;8.820;2022-10-26T03:52:01;97136.25;;;12.83;90.70
70968;BME280;58629;48.808;8.820;2022-10-26T03:54:27;97127.63;;;12.92;89.11
70968;BME280;58629;48.808;8.820;2022-10-26T03:56:52;97122.66;;;12.94;88.58
70968;BME280;58629;48.808;8.820;2022-10-26T03:59:18;97123.81;;;12.93;89.81
70968;BME280;58629;48.808;8.820;2022-10-26T04:01:43;97129.47;;;12.95;89.38
70968;BME280;58629;48.808;8.820;2022-10-26T04:04:08;97127.63;;;12.92;89.77
70968;BME280;58629;48.808;8.820;2022-10-26T04:06:33;97134.13;;;12.91;89.82
70968;BME280;58629;48.808;8.820;2022-10-26T04:08:59;97125.09;;;12.88;90.36
70968;BME280;58629;48.808;8.820;2022-10-26T04:11:27;97125.94;;;12.85;91.30
70968;BME280;58629;48.808;8.820;2022-10-26T04:13:52;97124.97;;;12.79;92.29
70968;BME280;58629;48.808;8.820;2022-10-26T04:16:19;97128.00;;;12.78;93.02
70968;BME280;58629;48.808;8.820;2022-10-26T04:18:44;97130.00;;;12.74;93.34
70968;BME280;58629;48.808;8.820;2022-10-26T04:21:10;97128.22;;;12.71;93.99
70968;BME280;58629;48.808;8.820;2022-10-26T04:23:35;97130.97;;;12.67;94.18
70968;BME280;58629;48.808;8.820;2022-10-26T04:26:03;97131.03;;;12.64;94.65
70968;BME280;58629;48.808;8.820;2022-10-26T04:28:29;97134.53;;;12.61;95.13
70968;BME280;58629;48.808;8.820;2022-10-26T04:30:54;97137.63;;;12.59;95.49
70968;BME280;58629;48.808;8.820;2022-10-26T04:33:19;97130.16;;;12.54;95.24
70968;BME280;58629;48.808;8.820;2022-10-26T04:35:44;97121.84;;;12.52;96.45
70968;BME280;58629;48.808;8.820;2022-10-26T04:38:10;97129.16;;;12.48;97.06
70968;BME280;58629;48.808;8.820;2022-10-26T04:40:35;97139.38;;;12.50;97.68
70968;BME280;58629;48.808;8.820;2022-10-26T04:43:01;97127.31;;;12.61;100.00
70968;BME280;58629;48.808;8.820;2022-10-26T04:45:26;97139.66;;;12.68;100.00
70968;BME280;58629;48.808;8.820;2022-10-26T04:48:08;97126.22;;;12.75;99.82
70968;BME280;58629;48.808;8.820;2022-10-26T04:50:35;97126.09;;;12.78;99.02
70968;BME280;58629;48.808;8.820;2022-10-26T04:53:00;97131.75;;;12.80;98.75
70968;BME280;58629;48.808;8.820;2022-10-26T04:55:26;97143.13;;;12.81;98.97
70968;BME280;58629;48.808;8.820;2022-10-26T04:57:51;97146.94;;;12.80;98.64
70968;BME280;58629;48.808;8.820;2022-10-26T05:00:17;97138.97;;;12.80;98.18
70968;BME280;58629;48.808;8.820;2022-10-26T05:02:42;97132.28;;;12.75;96.81
70968;BME280;58629;48.808;8.820;2022-10-26T05:05:07;97130.00;;;12.74;97.15
70968;BME280;58629;48.808;8.820;2022-10-26T05:07:33;97126.38;;;12.68;97.25
70968;BME280;58629;48.808;8.820;2022-10-26T05:09:58;97129.97;;;12.61;97.13
70968;BME280;58629;48.808;8.820;2022-10-26T05:12:23;97144.09;;;12.58;97.30
70968;BME280;58629;48.808;8.820;2022-10-26T05:14:49;97147.69;;;12.52;96.93
70968;BME280;58629;48.808;8.820;2022-10-26T05:17:14;97147.03;;;12.48;97.97
70968;BME280;58629;48.808;8.820;2022-10-26T05:19:39;97147.44;;;12.46;97.86
70968;BME280;58629;48.808;8.820;2022-10-26T05:22:05;97159.66;;;12.44;97.41
70968;BME280;58629;48.808;8.820;2022-10-26T05:24:31;97162.69;;;12.42;97.76
70968;BME280;58629;48.808;8.820;2022-10-26T05:26:56;97166.09;;;12.43;97.94
70968;BME280;58629;48.808;8.820;2022-10-26T05:29:21;97162.38;;;12.40;97.55
70968;BME280;58629;48.808;8.820;2022-10-26T05:31:47;97166.53;;;12.41;97.43
70968;BME280;58629;48.808;8.820;2022-10-26T05:34:12;97161.97;;;12.42;97.51
70968;BME280;58629;48.808;8.820;2022-10-26T05:36:37;97164.53;;;12.45;97.36
70968;BME280;58629;48.808;8.820;2022-10-26T05:39:03;97159.13;;;12.49;97.67
70968;BME280;58629;48.808;8.820;2022-10-26T05:41:28;97167.44;;;12.51;97.02
70968;BME280;58629;48.808;8.820;2022-10-26T05:43:53;97170.09;;;12.51;96.59
70968;BME280;58629;48.808;8.820;2022-10-26T05:46:18;97170.00;;;12.54;96.90
70968;BME280;58629;48.808;8.820;2022-10-26T05:48:44;97170.31;;;12.56;96.86
70968;BME280;58629;48.808;8.820;2022-10-26T05:51:09;97177.47;;;12.59;96.04
70968;BME280;58629;48.808;8.820;2022-10-26T05:53:36;97171.97;;;12.66;94.42
70968;BME280;58629;48.808;8.820;2022-10-26T05:56:02;97182.09;;;12.71;94.55
70968;BME280;58629;48.808;8.820;2022-10-26T05:58:27;97188.06;;;12.75;93.91
70968;BME280;58629;48.808;8.820;2022-10-26T06:03:36;97197.84;;;12.78;94.76
70968;BME280;58629;48.808;8.820;2022-10-26T06:06:06;97200.50;;;12.78;95.51
70968;BME280;58629;48.808;8.820;2022-10-26T06:08:31;97205.91;;;12.75;95.51
70968;BME280;58629;48.808;8.820;2022-10-26T06:10:57;97210.47;;;12.74;95.48
70968;BME280;58629;48.808;8.820;2022-10-26T06:13:23;97216.22;;;12.73;95.51
70968;BME280;58629;48.808;8.820;2022-10-26T06:24:43;97235.25;;;12.71;96.55
70968;BME280;58629;48.808;8.820;2022-10-26T06:27:22;97245.34;;;12.76;95.89
70968;BME280;58629;48.808;8.820;2022-10-26T06:30:04;97243.34;;;12.80;95.76
70968;BME280;58629;48.808;8.820;2022-10-26T06:32:34;97241.69;;;12.86;95.20
70968;BME280;58629;48.808;8.820;2022-10-26T06:38:09;97246.09;;;12.93;94.71
70968;BME280;58629;48.808;8.820;2022-10-26T06:40:37;97238.78;;;12.97;95.04
70968;BME280;58629;48.808;8.820;2022-10-26T06:43:12;97242.25;;;12.94;95.41
70968;BME280;58629;48.808;8.820;2022-10-26T06:45:42;97248.97;;;12.98;94.88
70968;BME280;58629;48.808;8.820;2022-10-26T06:48:15;97248.88;;;13.02;94.58
70968;BME280;58629;48.808;8.820;2022-10-26T06:50:50;97252.22;;;13.06;94.55
70968;BME280;58629;48.808;8.820;2022-10-26T06:53:38;97249.81;;;13.12;94.65
70968;BME280;58629;48.808;8.820;2022-10-26T06:56:06;97260.44;;;13.12;94.77
70968;BME280;58629;48.808;8.820;2022-10-26T06:58:33;97252.47;;;13.12;95.45
70968;BME280;58629;48.808;8.820;2022-10-26T07:01:00;97257.28;;;13.17;94.67
70968;BME280;58629;48.808;8.820;2022-10-26T07:03:26;97262.84;;;13.22;93.91
70968;BME280;58629;48.808;8.820;2022-10-26T07:05:51;97266.66;;;13.21;94.63
70968;BME280;58629;48.808;8.820;2022-10-26T07:08:17;97273.91;;;13.21;94.70
70968;BME280;58629;48.808;8.820;2022-10-26T07:10:42;97269.00;;;13.19;95.14
70968;BME280;58629;48.808;8.820;2022-10-26T07:13:09;97269.41;;;13.18;95.43
70968;BME280;58629;48.808;8.820;2022-10-26T07:15:36;97273.66;;;13.15;95.74
70968;BME280;58629;48.808;8.820;2022-10-26T07:18:03;97278.22;;;13.15;96.34
70968;BME280;58629;48.808;8.820;2022-10-26T07:20:35;97273.34;;;13.13;96.74
70968;BME280;58629;48.808;8.820;2022-10-26T07:23:01;97281.72;;;13.12;97.08
70968;BME280;58629;48.808;8.820;2022-10-26T07:25:27;97291.19;;;13.13;97.45
70968;BME280;58629;48.808;8.820;2022-10-26T07:27:57;97287.78;;;13.12;98.09
70968;BME280;58629;48.808;8.820;2022-10-26T07:30:24;97294.28;;;13.11;98.37
70968;BME280;58629;48.808;8.820;2022-10-26T07:32:49;97302.97;;;13.12;98.88
70968;BME280;58629;48.808;8.820;2022-10-26T07:35:14;97304.16;;;13.11;98.81
70968;BME280;58629;48.808;8.820;2022-10-26T07:37:40;97301.50;;;13.11;98.88
70968;BME280;58629;48.808;8.820;2022-10-26T07:40:05;97304.91;;;13.11;99.44
70968;BME280;58629;48.808;8.820;2022-10-26T07:42:31;97306.41;;;13.12;99.97
70968;BME280;58629;48.808;8.820;2022-10-26T07:44:56;97308.28;;;13.12;100.00
70968;BME280;58629;48.808;8.820;2022-10-26T07:47:21;97319.25;;;13.14;100.00
70968;BME280;58629;48.808;8.820;2022-10-26T07:49:47;97310.88;;;13.15;100.00
70968;BME280;58629;48.808;8.820;2022-10-26T07:52:12;97326.00;;;13.18;100.00
70968;BME280;58629;48.808;8.820;2022-10-26T07:54:37;97317.94;;;13.22;100.00
70968;BME280;58629;48.808;8.820;2022-10-26T07:57:02;97317.81;;;13.25;100.00
70968;BME280;58629;48.808;8.820;2022-10-26T07:59:28;97324.56;;;13.30;100.00
70968;BME280;58629;48.808;8.820;2022-10-26T08:01:53;97318.75;;;13.35;100.00
70968;BME280;58629;48.808;8.820;2022-10-26T08:04:19;97320.13;;;13.39;99.75
70968;BME280;58629;48.808;8.820;2022-10-26T08:06:44;97332.19;;;13.44;99.49
70968;BME280;58629;48.808;8.820;2022-10-26T08:09:10;97315.41;;;13.47;99.21
70968;BME280;58629;48.808;8.820;2022-10-26T08:11:35;97319.00;;;13.53;98.83
70968;BME280;58629;48.808;8.820;2022-10-26T08:14:02;97315.53;;;13.56;98.73
70968;BME280;58629;48.808;8.820;2022-10-26T08:16:27;97313.84;;;13.62;98.39
70968;BME280;58629;48.808;8.820;2022-10-26T08:18:53;97320.16;;;13.68;98.28
70968;BME280;58629;48.808;8.820;2022-10-26T08:21:18;97326.88;;;13.72;97.35
70968;BME280;58629;48.808;8.820;2022-10-26T08:23:43;97335.41;;;13.80;97.88
70968;BME280;58629;48.808;8.820;2022-10-26T08:26:09;97334.13;;;13.84;97.63
70968;BME280;58629;48.808;8.820;2022-10-26T08:28:38;97332.44;;;13.90;97.79
70968;BME280;58629;48.808;8.820;2022-10-26T08:31:04;97341.00;;;13.98;97.35
70968;BME280;58629;48.808;8.820;2022-10-26T08:33:29;97334.69;;;14.05;96.82
70968;BME280;58629;48.808;8.820;2022-10-26T08:35:59;97331.44;;;14.13;97.02
70968;BME280;58629;48.808;8.820;2022-10-26T08:38:24;97334.63;;;14.21;95.29
70968;BME280;58629;48.808;8.820;2022-10-26T08:40:50;97336.28;;;14.31;94.53
70968;BME280;58629;48.808;8.820;2022-10-26T08:43:56;97338.31;;;14.39;93.30
70968;BME280;58629;48.808;8.820;2022-10-26T08:46:28;97339.69;;;14.56;93.47
70968;BME280;58629;48.808;8.820;2022-10-26T08:49:00;97352.38;;;14.77;92.34
70968;BME280;58629;48.808;8.820;2022-10-26T08:51:35;97346.28;;;14.90;90.73
70968;BME280;58629;48.808;8.820;2022-10-26T08:54:11;97347.53;;;14.98;90.90
70968;BME280;58629;48.808;8.820;2022-10-26T08:56:45;97356.50;;;15.04;91.23
70968;BME280;58629;48.808;8.820;2022-10-26T08:59:18;97360.88;;;15.10;90.41
70968;BME280;58629;48.808;8.820;2022-10-26T09:01:51;97354.56;;;15.17;90.30
70968;BME280;58629;48.808;8.820;2022-10-26T09:04:17;97354.75;;;15.22;89.46
70968;BME280;58629;48.808;8.820;2022-10-26T09:07:09;97356.47;;;15.29;89.20
70968;BME280;58629;48.808;8.820;2022-10-26T09:25:38;97388.41;;;15.67;87.42
70968;BME280;58629;48.808;8.820;2022-10-26T09:28:04;97384.19;;;15.78;86.25
70968;BME280;58629;48.808;8.820;2022-10-26T09:30:32;97385.03;;;15.97;86.59
70968;BME280;58629;48.808;8.820;2022-10-26T09:33:03;97376.84;;;16.13;85.37
70968;BME280;58629;48.808;8.820;2022-10-26T09:35:44;97381.75;;;16.14;86.09
70968;BME280;58629;48.808;8.820;2022-10-26T09:41:24;97385.03;;;16.18;85.17
70968;BME280;58629;48.808;8.820;2022-10-26T09:44:44;97394.81;;;16.34;84.62
70968;BME280;58629;48.808;8.820;2022-10-26T09:46:51;97398.56;;;16.45;84.38
70968;BME280;58629;48.808;8.820;2022-10-26T09:49:23;97392.72;;;16.60;84.98
70968;BME280;58629;48.808;8.820;2022-10-26T09:51:54;97388.31;;;16.66;83.54
70968;BME280;58629;48.808;8.820;2022-10-26T09:54:20;97393.69;;;16.75;83.69
70968;BME280;58629;48.808;8.820;2022-10-26T09:56:49;97396.06;;;16.82;82.91
70968;BME280;58629;48.808;8.820;2022-10-26T09:59:17;97404.91;;;17.00;84.06
70968;BME280;58629;48.808;8.820;2022-10-26T10:01:43;97407.34;;;17.16;83.82
70968;BME280;58629;48.808;8.820;2022-10-26T10:06:37;97416.63;;;17.43;80.87
70968;BME280;58629;48.808;8.820;2022-10-26T10:09:05;97419.44;;;17.48;80.09
70968;BME280;58629;48.808;8.820;2022-10-26T10:11:52;97423.16;;;17.42;79.49
70968;BME280;58629;48.808;8.820;2022-10-26T10:14:23;97429.31;;;17.60;79.23
70968;BME280;58629;48.808;8.820;2022-10-26T10:16:54;97425.59;;;17.76;79.97
70968;BME280;58629;48.808;8.820;2022-10-26T10:19:26;97433.34;;;17.65;78.56
70968;BME280;58629;48.808;8.820;2022-10-26T10:21:55;97437.19;;;17.55;77.13
70968;BME280;58629;48.808;8.820;2022-10-26T10:24:24;97441.66;;;17.49;75.59
70968;BME280;58629;48.808;8.820;2022-10-26T10:26:59;97440.00;;;17.51;75.60
70968;BME280;58629;48.808;8.820;2022-10-26T10:29:39;97432.41;;;17.50;76.08
70968;BME280;58629;48.808;8.820;2022-10-26T10:32:22;97440.00;;;17.51;75.27
70968;BME280;58629;48.808;8.820;2022-10-26T10:34:50;97442.25;;;17.53;75.04
70968;BME280;58629;48.808;8.820;2022-10-26T10:39:44;97442.41;;;17.58;74.34
70968;BME280;58629;48.808;8.820;2022-10-26T10:42:36;97444.19;;;17.52;73.45
70968;BME280;58629;48.808;8.820;2022-10-26T10:45:04;97447.72;;;17.49;74.99
70968;BME280;58629;48.808;8.820;2022-10-26T10:47:35;97450.00;;;17.60;73.76
70968;BME280;58629;48.808;8.820;2022-10-26T10:50:05;97452.41;;;17.67;74.17
70968;BME280;58629;48.808;8.820;2022-10-26T10:52:34;97462.22;;;17.70;73.61
70968;BME280;58629;48.808;8.820;2022-10-26T10:55:07;97458.94;;;17.75;73.90
70968;BME280;58629;48.808;8.820;2022-10-26T11:00:23;97450.91;;;17.93;71.82
70968;BME280;58629;48.808;8.820;2022-10-26T11:08:27;97460.59;;;18.17;74.26
70968;BME280;58629;48.808;8.820;2022-10-26T11:13:47;97457.16;;;18.35;71.95
70968;BME280;58629;48.808;8.820;2022-10-26T11:16:21;97457.91;;;18.45;71.44
70968;BME280;58629;48.808;8.820;2022-10-26T11:18:56;97467.13;;;18.53;70.62
70968;BME280;58629;48.808;8.820;2022-10-26T11:21:28;97458.78;;;18.60;72.47
70968;BME280;58629;48.808;8.820;2022-10-26T11:24:10;97462.47;;;18.62;70.51
70968;BME280;58629;48.808;8.820;2022-10-26T11:26:52;97464.28;;;18.65;70.68
70968;BME280;58629;48.808;8.820;2022-10-26T11:34:47;97471.28;;;18.63;69.80
70968;BME280;58629;48.808;8.820;2022-10-26T11:37:33;97478.56;;;18.62;70.96
70968;BME280;58629;48.808;8.820;2022-10-26T11:40:17;97479.91;;;18.67;71.18
70968;BME280;58629;48.808;8.820;2022-10-26T11:43:11;97480.38;;;18.65;69.32
70968;BME280;58629;48.808;8.820;2022-10-26T11:45:44;97479.91;;;18.67;69.09
70968;BME280;58629;48.808;8.820;2022-10-26T11:48:21;97475.00;;;18.65;65.66
70968;BME280;58629;48.808;8.820;2022-10-26T11:50:52;97478.28;;;18.69;68.00
70968;BME280;58629;48.808;8.820;2022-10-26T11:53:45;97475.72;;;18.75;68.06
70968;BME280;58629;48.808;8.820;2022-10-26T11:56:41;97474.34;;;18.88;69.96
70968;BME280;58629;48.808;8.820;2022-10-26T11:59:16;97468.81;;;18.92;68.83
70968;BME280;58629;48.808;8.820;2022-10-26T12:01:42;97472.97;;;18.93;64.67
70968;BME280;58629;48.808;8.820;2022-10-26T12:04:09;97468.03;;;19.00;64.42
70968;BME280;58629;48.808;8.820;2022-10-26T12:06:34;97472.06;;;19.05;67.86
70968;BME280;58629;48.808;8.820;2022-10-26T12:09:05;97473.69;;;19.02;66.84
70968;BME280;58629;48.808;8.820;2022-10-26T12:16:53;97478.25;;;19.20;67.92
70968;BME280;58629;48.808;8.820;2022-10-26T12:21:50;97474.66;;;19.23;70.22
70968;BME280;58629;48.808;8.820;2022-10-26T12:26:55;97479.41;;;19.28;69.59
70968;BME280;58629;48.808;8.820;2022-10-26T12:29:37;97493.88;;;19.31;70.55
70968;BME280;58629;48.808;8.820;2022-10-26T12:32:04;97481.91;;;19.32;70.15
70968;BME280;58629;48.808;8.820;2022-10-26T12:37:28;97483.06;;;19.72;66.63
70968;BME280;58629;48.808;8.820;2022-10-26T12:39:54;97486.19;;;19.71;66.99
70968;BME280;58629;48.808;8.820;2022-10-26T12:45:18;97499.69;;;19.85;65.50
70968;BME280;58629;48.808;8.820;2022-10-26T13:00:13;97499.88;;;20.44;60.61
70968;BME280;58629;48.808;8.820;2022-10-26T13:08:22;97511.66;;;20.61;59.11
70968;BME280;58629;48.808;8.820;2022-10-26T13:11:02;97516.19;;;20.55;60.79
70968;BME280;58629;48.808;8.820;2022-10-26T13:13:30;97509.88;;;20.43;58.01
70968;BME280;58629;48.808;8.820;2022-10-26T13:15:58;97507.28;;;20.49;60.42
70968;BME280;58629;48.808;8.820;2022-10-26T13:18:25;97511.75;;;20.52;58.56
70968;BME280;58629;48.808;8.820;2022-10-26T13:21:11;97514.06;;;20.59;61.19
70968;BME280;58629;48.808;8.820;2022-10-26T13:23:40;97517.50;;;20.59;58.34
70968;BME280;58629;48.808;8.820;2022-10-26T13:26:24;97516.00;;;20.58;57.90
70968;BME280;58629;48.808;8.820;2022-10-26T13:28:57;97515.81;;;20.47;58.09
70968;BME280;58629;48.808;8.820;2022-10-26T13:34:15;97518.81;;;20.49;59.63
70968;BME280;58629;48.808;8.820;2022-10-26T13:37:06;97526.06;;;20.58;60.22
70968;BME280;58629;48.808;8.820;2022-10-26T13:39:37;97521.13;;;20.56;58.80
70968;BME280;58629;48.808;8.820;2022-10-26T13:42:04;97528.19;;;20.54;57.54
70968;BME280;58629;48.808;8.820;2022-10-26T13:44:52;97528.47;;;20.56;58.47
70968;BME280;58629;48.808;8.820;2022-10-26T13:50:10;97522.34;;;20.55;58.08
70968;BME280;58629;48.808;8.820;2022-10-26T13:52:42;97530.41;;;20.55;60.81
70968;BME280;58629;48.808;8.820;2022-10-26T13:55:28;97535.69;;;20.50;58.94
70968;BME280;58629;48.808;8.820;2022-10-26T13:58:16;97532.41;;;20.31;57.72
70968;BME280;58629;48.808;8.820;2022-10-26T14:01:23;97542.31;;;20.25;61.66
70968;BME280;58629;48.808;8.820;2022-10-26T14:03:47;97542.06;;;20.14;61.04
70968;BME280;58629;48.808;8.820;2022-10-26T14:06:35;97547.16;;;19.88;58.79
70968;BME280;58629;48.808;8.820;2022-10-26T14:09:04;97545.72;;;19.78;61.98
70968;BME280;58629;48.808;8.820;2022-10-26T14:11:47;97550.53;;;19.74;61.78
70968;BME280;58629;48.808;8.820;2022-10-26T14:14:17;97557.75;;;19.59;60.45
70968;BME280;58629;48.808;8.820;2022-10-26T14:16:44;97562.53;;;19.64;61.82
70968;BME280;58629;48.808;8.820;2022-10-26T14:19:23;97572.06;;;19.65;63.97
70968;BME280;58629;48.808;8.820;2022-10-26T14:21:50;97564.16;;;19.62;59.80
70968;BME280;58629;48.808;8.820;2022-10-26T14:24:27;97574.47;;;19.63;60.89
70968;BME280;58629;48.808;8.820;2022-10-26T14:26:53;97570.75;;;19.61;59.88
70968;BME280;58629;48.808;8.820;2022-10-26T14:29:20;97571.47;;;19.61;61.82
70968;BME280;58629;48.808;8.820;2022-10-26T14:31:46;97573.88;;;19.59;61.76
70968;BME280;58629;48.808;8.820;2022-10-26T14:34:13;97579.25;;;19.59;62.60
70968;BME280;58629;48.808;8.820;2022-10-26T14:36:43;97577.94;;;19.55;60.70
70968;BME280;58629;48.808;8.820;2022-10-26T14:39:37;97582.28;;;19.52;60.29
70968;BME280;58629;48.808;8.820;2022-10-26T14:42:06;97584.50;;;19.54;61.67
70968;BME280;58629;48.808;8.820;2022-10-26T14:44:35;97584.97;;;19.52;59.97
70968;BME280;58629;48.808;8.820;2022-10-26T14:47:01;97590.78;;;19.51;62.60
70968;BME280;58629;48.808;8.820;2022-10-26T14:49:27;97596.22;;;19.33;62.78
70968;BME280;58629;48.808;8.820;2022-10-26T14:52:03;97591.16;;;19.17;63.77
70968;BME280;58629;48.808;8.820;2022-10-26T14:54:29;97594.63;;;18.99;64.86
70968;BME280;58629;48.808;8.820;2022-10-26T14:56:56;97591.38;;;18.86;66.19
70968;BME280;58629;48.808;8.820;2022-10-26T14:59:27;97598.53;;;18.71;64.89
70968;BME280;58629;48.808;8.820;2022-10-26T15:02:00;97600.03;;;18.54;67.21